createdAt,value
2018-09-15T00:00:57.508Z,98.70
2018-09-15T00:03:26.461Z,99.00
2018-09-15T00:05:55.651Z,98.50
2018-09-15T00:08:25.193Z,98.50
2018-09-15T00:10:54.571Z,99.10
2018-09-15T00:13:23.953Z,99.90
2018-09-15T00:15:52.544Z,99.90
2018-09-15T00:18:21.185Z,99.90
2018-09-15T00:20:50.605Z,99.20
2018-09-15T00:23:19.225Z,99.00
2018-09-15T00:25:47.817Z,98.50
2018-09-15T00:28:16.444Z,98.70
2018-09-15T00:30:45.345Z,98.10
2018-09-15T00:33:13.958Z,99.30
2018-09-15T00:35:42.559Z,98.80
2018-09-15T00:38:11.190Z,99.90
2018-09-15T00:40:39.778Z,99.60
2018-09-15T00:43:08.384Z,99.90
2018-09-15T00:45:37.042Z,98.80
2018-09-15T00:48:05.674Z,98.30
2018-09-15T00:50:34.246Z,99.30
2018-09-15T00:53:02.853Z,98.60
2018-09-15T00:55:31.481Z,99.70
2018-09-15T00:58:00.133Z,99.20
2018-09-15T01:00:28.729Z,98.80
2018-09-15T01:02:57.402Z,98.80
2018-09-15T01:05:26.042Z,98.30
2018-09-15T01:07:54.628Z,98.70
2018-09-15T01:10:23.241Z,98.00
2018-09-15T01:12:51.817Z,98.10
2018-09-15T01:15:20.417Z,98.00
2018-09-15T01:17:49.012Z,98.70
2018-09-15T01:20:28.026Z,98.20
2018-09-15T01:22:56.599Z,99.00
2018-09-15T01:25:25.236Z,98.50
2018-09-15T01:27:53.804Z,98.50
2018-09-15T01:30:22.713Z,99.00
2018-09-15T01:32:51.321Z,98.40
2018-09-15T01:35:19.929Z,99.70
2018-09-15T01:37:48.521Z,97.80
2018-09-15T01:40:17.125Z,99.10
2018-09-15T01:42:45.693Z,98.50
2018-09-15T01:45:14.977Z,98.50
2018-09-15T01:47:43.544Z,99.00
2018-09-15T01:50:12.132Z,98.60
2018-09-15T01:52:40.712Z,98.70
2018-09-15T01:55:09.331Z,99.50
2018-09-15T01:57:37.973Z,97.50
2018-09-15T02:00:06.524Z,98.70
2018-09-15T02:02:35.088Z,97.90
2018-09-15T02:05:03.713Z,97.80
2018-09-15T02:07:32.289Z,97.90
2018-09-15T02:10:00.954Z,97.60
2018-09-15T02:12:29.693Z,98.20
2018-09-15T02:14:58.285Z,97.40
2018-09-15T02:17:26.863Z,98.20
2018-09-15T02:19:55.451Z,97.90
2018-09-15T02:22:24.364Z,97.60
2018-09-15T02:24:53.060Z,97.50
2018-09-15T02:27:21.638Z,98.50
2018-09-15T02:29:50.205Z,99.40
2018-09-15T02:32:18.804Z,99.10
2018-09-15T02:34:47.477Z,99.80
2018-09-15T02:37:16.177Z,98.70
2018-09-15T02:39:44.759Z,98.50
2018-09-15T02:42:13.372Z,98.50
2018-09-15T02:44:41.945Z,98.50
2018-09-15T02:47:10.540Z,98.50
2018-09-15T02:49:39.712Z,98.20
2018-09-15T02:52:09.015Z,97.80
2018-09-15T02:54:37.613Z,98.10
2018-09-15T02:57:06.428Z,98.10
2018-09-15T02:59:35.029Z,98.50
2018-09-15T03:02:03.646Z,97.90
2018-09-15T03:04:32.222Z,97.00
2018-09-15T03:07:00.810Z,97.90
2018-09-15T03:09:29.393Z,97.60
2018-09-15T03:11:57.995Z,97.30
2018-09-15T03:14:26.570Z,97.90
2018-09-15T03:16:55.173Z,97.80
2018-09-15T03:19:24.226Z,98.40
2018-09-15T03:21:52.853Z,97.70
2018-09-15T03:24:21.420Z,97.80
2018-09-15T03:26:50.032Z,97.70
2018-09-15T03:29:18.799Z,97.60
2018-09-15T03:31:47.410Z,97.50
2018-09-15T03:34:15.987Z,96.50
2018-09-15T03:36:44.599Z,97.10
2018-09-15T03:39:13.549Z,96.30
2018-09-15T03:41:42.838Z,95.80
2018-09-15T03:44:11.642Z,96.30
2018-09-15T03:46:40.258Z,96.80
2018-09-15T03:49:08.845Z,97.00
2018-09-15T03:51:37.634Z,97.40
2018-09-15T03:54:06.533Z,97.20
2018-09-15T03:56:35.126Z,98.00
2018-09-15T03:59:03.750Z,97.10
2018-09-15T04:01:32.325Z,98.10
2018-09-15T04:04:00.948Z,97.00
2018-09-15T04:06:29.534Z,96.70
2018-09-15T04:08:58.150Z,97.30
2018-09-15T04:11:26.744Z,97.20
2018-09-15T04:13:55.342Z,97.30
2018-09-15T04:16:23.928Z,97.10
2018-09-15T04:18:52.954Z,97.50
2018-09-15T04:21:21.541Z,97.10
2018-09-15T04:23:50.322Z,96.70
2018-09-15T04:26:18.885Z,96.60
2018-09-15T04:28:47.674Z,96.40
2018-09-15T04:31:16.248Z,96.60
2018-09-15T04:33:44.938Z,97.60
2018-09-15T04:36:13.534Z,97.30
2018-09-15T04:38:42.164Z,96.80
2018-09-15T04:41:10.740Z,97.00
2018-09-15T04:43:39.342Z,97.20
2018-09-15T04:46:07.973Z,97.00
2018-09-15T04:48:36.572Z,96.20
2018-09-15T04:51:05.148Z,97.00
2018-09-15T04:53:33.878Z,97.30
2018-09-15T04:56:02.433Z,97.20
2018-09-15T04:58:31.038Z,97.00
2018-09-15T05:01:02.115Z,96.90
2018-09-15T05:03:30.868Z,97.90
2018-09-15T05:05:59.438Z,96.60
2018-09-15T05:08:28.020Z,97.00
2018-09-15T05:10:56.599Z,97.20
2018-09-15T05:13:25.452Z,98.10
2018-09-15T05:15:54.133Z,97.40
2018-09-15T05:18:22.874Z,97.30
2018-09-15T05:20:51.546Z,97.10
2018-09-15T05:23:20.200Z,97.50
2018-09-15T05:25:48.916Z,97.70
2018-09-15T05:28:17.492Z,98.10
2018-09-15T05:30:46.125Z,97.80
2018-09-15T05:33:14.716Z,97.00
2018-09-15T05:35:43.991Z,97.80
2018-09-15T05:38:12.647Z,98.90
2018-09-15T05:40:41.233Z,97.90
2018-09-15T05:43:09.801Z,98.40
2018-09-15T05:45:38.405Z,98.30
2018-09-15T05:48:07.007Z,97.70
2018-09-15T05:50:35.652Z,97.40
2018-09-15T05:53:04.252Z,97.60
2018-09-15T05:55:32.839Z,97.80
2018-09-15T05:58:01.413Z,98.50
2018-09-15T06:00:30.109Z,97.70
2018-09-15T06:02:59.192Z,98.20
2018-09-15T06:05:27.790Z,98.90
2018-09-15T06:07:56.365Z,98.80
2018-09-15T06:10:24.963Z,97.70
2018-09-15T06:12:53.534Z,98.90
2018-09-15T06:15:22.147Z,99.40
2018-09-15T06:17:50.734Z,97.50
2018-09-15T06:20:19.317Z,97.50
2018-09-15T06:22:47.916Z,97.60
2018-09-15T06:25:17.112Z,98.10
2018-09-15T06:27:45.730Z,97.40
2018-09-15T06:30:15.014Z,97.80
2018-09-15T06:32:43.673Z,96.90
2018-09-15T06:35:12.303Z,96.20
2018-09-15T06:37:40.913Z,95.00
2018-09-15T06:40:09.609Z,94.40
2018-09-15T06:42:38.209Z,93.60
2018-09-15T06:45:07.007Z,92.70
2018-09-15T06:47:36.313Z,91.10
2018-09-15T06:50:05.194Z,90.90
2018-09-15T06:52:33.814Z,91.00
2018-09-15T06:55:02.403Z,89.90
2018-09-15T06:57:31.167Z,89.40
2018-09-15T06:59:59.740Z,87.80
2018-09-15T07:02:28.320Z,86.90
2018-09-15T07:04:56.933Z,84.50
2018-09-15T07:07:25.520Z,81.10
2018-09-15T07:09:54.107Z,80.30
2018-09-15T07:12:22.701Z,82.70
2018-09-15T07:14:51.256Z,77.90
2018-09-15T07:17:19.854Z,80.20
2018-09-15T07:19:48.425Z,78.50
2018-09-15T07:22:17.016Z,77.30
2018-09-15T07:24:45.585Z,73.30
2018-09-15T07:27:14.186Z,73.80
2018-09-15T07:29:42.801Z,72.30
2018-09-15T07:32:11.522Z,68.70
2018-09-15T07:34:41.123Z,68.90
2018-09-15T07:37:09.825Z,70.10
2018-09-15T07:39:38.516Z,66.50
2018-09-15T07:42:07.187Z,68.20
2018-09-15T07:44:35.799Z,69.10
2018-09-15T07:47:04.389Z,63.60
2018-09-15T07:49:33.001Z,65.30
2018-09-15T07:52:01.643Z,66.70
2018-09-15T07:54:30.283Z,62.60
2018-09-15T07:56:58.854Z,60.20
2018-09-15T07:59:27.676Z,58.90
2018-09-15T08:01:56.385Z,58.90
2018-09-15T08:04:24.995Z,62.30
2018-09-15T08:06:53.591Z,59.10
2018-09-15T08:09:22.188Z,57.60
2018-09-15T08:11:50.777Z,59.10
2018-09-15T08:14:19.408Z,54.60
2018-09-15T08:16:47.982Z,53.80
2018-09-15T08:19:16.567Z,53.50
2018-09-15T08:21:45.145Z,51.20
2018-09-15T08:24:13.910Z,54.30
2018-09-15T08:26:42.489Z,51.50
2018-09-15T08:29:11.762Z,51.30
2018-09-15T08:31:40.343Z,49.80
2018-09-15T08:34:08.949Z,53.30
2018-09-15T08:36:37.517Z,50.20
2018-09-15T08:39:08.178Z,48.20
2018-09-15T08:41:36.768Z,46.70
2018-09-15T08:44:05.463Z,49.50
2018-09-15T08:46:34.021Z,50.10
2018-09-15T08:49:02.686Z,46.40
2018-09-15T08:51:31.521Z,44.80
2018-09-15T08:54:00.162Z,47.40
2018-09-15T08:56:28.832Z,44.90
2018-09-15T08:58:57.931Z,43.60
2018-09-15T09:01:26.522Z,44.80
2018-09-15T09:03:55.112Z,46.90
2018-09-15T09:06:23.802Z,45.50
2018-09-15T09:08:52.576Z,40.40
2018-09-15T09:11:21.133Z,38.70
2018-09-15T09:13:49.685Z,41.70
2018-09-15T09:16:18.276Z,42.00
2018-09-15T09:18:47.036Z,38.80
2018-09-15T09:21:15.646Z,39.90
2018-09-15T09:23:44.230Z,41.80
2018-09-15T09:26:13.508Z,42.80
2018-09-15T09:28:42.081Z,38.40
2018-09-15T09:31:10.669Z,41.10
2018-09-15T09:33:39.233Z,39.70
2018-09-15T09:36:07.881Z,33.80
2018-09-15T09:38:36.516Z,37.70
2018-09-15T09:41:05.120Z,37.70
2018-09-15T09:43:33.694Z,34.00
2018-09-15T09:46:02.343Z,37.60
2018-09-15T09:48:31.054Z,37.70
2018-09-15T09:51:00.455Z,31.40
2018-09-15T09:53:29.048Z,35.70
2018-09-15T09:55:57.631Z,32.90
2018-09-15T09:58:26.194Z,30.90
2018-09-15T10:01:03.810Z,32.40
2018-09-15T10:03:32.542Z,30.30
2018-09-15T10:06:01.165Z,30.20
2018-09-15T10:08:29.750Z,32.40
2018-09-15T10:10:58.358Z,30.30
2018-09-15T10:13:26.933Z,32.30
2018-09-15T10:15:55.561Z,29.40
2018-09-15T10:18:24.132Z,32.00
2018-09-15T10:20:52.736Z,30.10
2018-09-15T10:23:21.326Z,30.50
2018-09-15T10:25:49.922Z,29.50
2018-09-15T10:28:18.497Z,33.80
2018-09-15T10:30:47.780Z,31.00
2018-09-15T10:33:16.355Z,29.70
2018-09-15T10:35:44.953Z,29.30
2018-09-15T10:38:14.598Z,28.00
2018-09-15T10:40:43.598Z,29.60
2018-09-15T10:43:16.385Z,29.60
2018-09-15T10:45:48.124Z,32.10
2018-09-15T10:48:16.799Z,30.80
2018-09-15T10:50:45.422Z,31.30
2018-09-15T10:53:22.762Z,30.90
2018-09-15T10:55:57.400Z,31.30
2018-09-15T10:58:26.028Z,30.20
2018-09-15T11:00:57.537Z,30.50
2018-09-15T11:03:26.122Z,30.80
2018-09-15T11:05:54.790Z,30.70
2018-09-15T11:08:23.312Z,32.50
2018-09-15T11:10:58.651Z,32.20
2018-09-15T11:13:27.342Z,29.60
2018-09-15T11:15:56.314Z,31.70
2018-09-15T11:18:25.005Z,32.60
2018-09-15T11:20:53.571Z,33.00
2018-09-15T11:23:22.416Z,33.20
2018-09-15T11:25:51.004Z,35.00
2018-09-15T11:28:19.655Z,36.20
2018-09-15T11:30:50.429Z,36.20
2018-09-15T11:33:19.029Z,36.40
2018-09-15T11:35:47.604Z,35.40
2018-09-15T11:38:16.221Z,35.20
2018-09-15T11:40:44.798Z,35.50
2018-09-15T11:43:13.932Z,36.90
2018-09-15T11:45:42.525Z,35.50
2018-09-15T11:48:11.603Z,38.50
2018-09-15T11:50:40.855Z,38.60
2018-09-15T11:53:10.644Z,36.80
2018-09-15T11:55:39.889Z,38.10
2018-09-15T11:58:11.943Z,40.10
2018-09-15T12:00:47.456Z,39.40
2018-09-15T12:03:18.777Z,39.90
2018-09-15T12:05:47.758Z,40.40
2018-09-15T12:08:17.455Z,40.20
2018-09-15T12:10:47.301Z,39.10
2018-09-15T12:13:16.904Z,40.60
2018-09-15T12:15:47.668Z,40.30
2018-09-15T12:18:16.818Z,39.40
2018-09-15T12:20:46.201Z,40.00
2018-09-15T12:23:15.638Z,39.80
2018-09-15T12:25:44.905Z,39.80
2018-09-15T12:28:13.859Z,39.10
2018-09-15T12:30:42.433Z,40.70
2018-09-15T12:33:11.133Z,40.60
2018-09-15T12:35:39.712Z,41.30
2018-09-15T12:38:08.332Z,41.30
2018-09-15T12:40:36.904Z,41.80
2018-09-15T12:43:05.601Z,41.00
2018-09-15T12:45:34.219Z,42.00
2018-09-15T12:48:02.878Z,41.80
2018-09-15T12:50:31.481Z,43.20
2018-09-15T12:53:00.152Z,42.70
2018-09-15T12:55:28.821Z,43.10
2018-09-15T12:57:57.431Z,43.50
2018-09-15T13:00:26.005Z,43.20
2018-09-15T13:02:54.628Z,42.20
2018-09-15T13:05:23.226Z,42.10
2018-09-15T13:07:51.800Z,42.20
2018-09-15T13:10:20.384Z,42.70
2018-09-15T13:12:48.970Z,42.90
2018-09-15T13:15:17.593Z,42.00
2018-09-15T13:17:46.165Z,40.30
2018-09-15T13:20:14.769Z,41.50
2018-09-15T13:22:43.334Z,42.00
2018-09-15T13:25:11.929Z,42.30
2018-09-15T13:27:40.502Z,42.20
2018-09-15T13:30:09.341Z,41.90
2018-09-15T13:32:38.812Z,41.70
2018-09-15T13:35:07.457Z,43.30
2018-09-15T13:37:37.804Z,42.60
2018-09-15T13:40:06.526Z,43.70
2018-09-15T13:42:35.101Z,44.10
2018-09-15T13:45:03.731Z,43.00
2018-09-15T13:47:32.308Z,43.40
2018-09-15T13:50:00.938Z,43.80
2018-09-15T13:52:29.501Z,44.50
2018-09-15T13:54:58.103Z,43.00
2018-09-15T13:57:26.791Z,43.60
2018-09-15T13:59:55.391Z,42.70
2018-09-15T14:02:23.978Z,42.10
2018-09-15T14:04:52.659Z,42.90
2018-09-15T14:07:21.173Z,42.20
2018-09-15T14:09:49.767Z,43.20
2018-09-15T14:12:18.367Z,43.70
2018-09-15T14:14:46.953Z,43.40
2018-09-15T14:17:15.534Z,44.10
2018-09-15T14:19:44.153Z,44.60
2018-09-15T14:22:12.733Z,44.70
2018-09-15T14:24:41.383Z,45.00
2018-09-15T14:27:09.952Z,44.70
2018-09-15T14:29:38.574Z,45.60
2018-09-15T14:32:07.168Z,43.90
2018-09-15T14:34:35.904Z,44.90
2018-09-15T14:37:04.461Z,45.50
2018-09-15T14:39:33.116Z,45.20
2018-09-15T14:42:01.708Z,45.50
2018-09-15T14:44:30.301Z,45.40
2018-09-15T14:46:58.923Z,46.00
2018-09-15T14:49:27.568Z,44.60
2018-09-15T14:51:56.911Z,46.00
2018-09-15T14:54:25.491Z,45.90
2018-09-15T14:56:54.083Z,45.60
2018-09-15T14:59:22.682Z,45.90
2018-09-15T15:01:51.274Z,45.80
2018-09-15T15:04:19.932Z,45.70
2018-09-15T15:06:48.660Z,45.90
2018-09-15T15:09:17.208Z,45.70
2018-09-15T15:11:45.804Z,45.30
2018-09-15T15:14:14.380Z,45.90
2018-09-15T15:16:42.974Z,44.70
2018-09-15T15:19:11.546Z,45.30
2018-09-15T15:21:40.154Z,45.80
2018-09-15T15:24:08.767Z,47.00
2018-09-15T15:26:37.447Z,45.60
2018-09-15T15:29:06.189Z,45.90
2018-09-15T15:31:37.080Z,46.10
2018-09-15T15:34:05.657Z,46.50
2018-09-15T15:36:34.283Z,45.80
2018-09-15T15:39:02.954Z,46.30
2018-09-15T15:41:31.547Z,46.20
2018-09-15T15:44:00.121Z,47.50
2018-09-15T15:46:29.364Z,46.30
2018-09-15T15:48:57.968Z,46.70
2018-09-15T15:51:27.692Z,47.90
2018-09-15T15:53:56.228Z,47.80
2018-09-15T15:56:24.824Z,47.40
2018-09-15T15:58:53.533Z,47.60
2018-09-15T16:01:22.449Z,48.00
2018-09-15T16:03:51.641Z,48.20
2018-09-15T16:06:20.299Z,48.30
2018-09-15T16:08:49.411Z,48.60
2018-09-15T16:11:18.205Z,47.90
2018-09-15T16:13:46.851Z,48.70
2018-09-15T16:16:15.357Z,48.80
2018-09-15T16:18:43.972Z,48.50
2018-09-15T16:21:12.620Z,49.10
2018-09-15T16:23:41.209Z,49.50
2018-09-15T16:26:09.853Z,48.20
2018-09-15T16:28:38.433Z,49.70
2018-09-15T16:31:07.023Z,49.30
2018-09-15T16:33:35.612Z,49.40
2018-09-15T16:36:04.205Z,49.10
2018-09-15T16:38:32.886Z,49.00
2018-09-15T16:41:01.535Z,49.60
2018-09-15T16:43:30.133Z,49.30
2018-09-15T16:45:58.693Z,49.80
2018-09-15T16:48:27.297Z,50.60
2018-09-15T16:50:55.880Z,49.80
2018-09-15T16:53:24.465Z,50.10
2018-09-15T16:55:53.020Z,50.10
2018-09-15T16:58:21.901Z,50.60
2018-09-15T17:00:50.552Z,51.00
2018-09-15T17:03:19.280Z,51.40
2018-09-15T17:05:47.841Z,52.10
2018-09-15T17:08:16.440Z,53.90
2018-09-15T17:10:45.005Z,54.50
2018-09-15T17:13:13.623Z,54.90
2018-09-15T17:15:42.203Z,55.20
2018-09-15T17:18:11.264Z,56.20
2018-09-15T17:20:39.849Z,57.60
2018-09-15T17:23:08.505Z,58.10
2018-09-15T17:25:37.106Z,59.80
2018-09-15T17:28:05.761Z,60.90
2018-09-15T17:30:34.328Z,62.30
2018-09-15T17:33:02.916Z,64.70
2018-09-15T17:35:31.493Z,64.10
2018-09-15T17:38:00.141Z,65.00
2018-09-15T17:40:28.742Z,67.00
2018-09-15T17:42:57.353Z,66.40
2018-09-15T17:45:26.200Z,67.00
2018-09-15T17:47:54.786Z,68.80
2018-09-15T17:50:23.389Z,71.20
2018-09-15T17:52:51.973Z,70.70
2018-09-15T17:55:20.576Z,71.80
2018-09-15T17:57:49.139Z,71.80
2018-09-15T18:00:17.758Z,72.60
2018-09-15T18:02:46.327Z,73.30
2018-09-15T18:05:14.932Z,72.70
2018-09-15T18:07:43.528Z,73.20
2018-09-15T18:10:12.120Z,74.10
2018-09-15T18:12:40.713Z,74.80
2018-09-15T18:15:09.397Z,73.60
2018-09-15T18:17:38.000Z,74.30
2018-09-15T18:20:06.758Z,76.30
2018-09-15T18:22:35.364Z,74.60
2018-09-15T18:25:04.020Z,76.00
2018-09-15T18:27:32.593Z,77.00
2018-09-15T18:30:01.609Z,76.10
2018-09-15T18:32:30.404Z,76.70
2018-09-15T18:34:59.026Z,78.20
2018-09-15T18:37:28.492Z,78.30
2018-09-15T18:39:57.521Z,79.20
2018-09-15T18:42:26.081Z,78.00
2018-09-15T18:44:54.701Z,77.90
2018-09-15T18:47:23.278Z,80.30
2018-09-15T18:49:52.752Z,79.10
2018-09-15T18:52:25.594Z,81.50
2018-09-15T18:54:54.527Z,79.40
2018-09-15T18:57:26.428Z,78.90
2018-09-15T18:59:56.515Z,79.20
2018-09-15T19:02:25.077Z,81.60
2018-09-15T19:04:53.932Z,80.60
2018-09-15T19:07:22.550Z,81.40
2018-09-15T19:09:51.991Z,80.10
2018-09-15T19:12:20.638Z,81.10
2018-09-15T19:14:49.313Z,80.40
2018-09-15T19:17:17.875Z,81.00
2018-09-15T19:19:46.447Z,82.30
2018-09-15T19:22:15.056Z,81.90
2018-09-15T19:24:44.535Z,83.60
2018-09-15T19:27:13.218Z,81.60
2018-09-15T19:29:41.806Z,82.40
2018-09-15T19:32:10.588Z,82.20
2018-09-15T19:34:39.340Z,84.20
2018-09-15T19:37:09.292Z,83.10
2018-09-15T19:39:37.909Z,82.40
2018-09-15T19:42:06.815Z,82.60
2018-09-15T19:44:35.422Z,83.10
2018-09-15T19:47:04.096Z,83.10
2018-09-15T19:49:32.676Z,83.00
2018-09-15T19:52:02.857Z,83.50
2018-09-15T19:54:31.428Z,83.90
2018-09-15T19:57:00.028Z,83.50
2018-09-15T19:59:28.625Z,83.90
2018-09-15T20:01:57.250Z,85.30
2018-09-15T20:04:25.815Z,83.40
2018-09-15T20:06:54.420Z,85.10
2018-09-15T20:09:22.989Z,83.10
2018-09-15T20:11:51.587Z,84.40
2018-09-15T20:14:20.157Z,82.80
2018-09-15T20:16:47.587Z,85.10
2018-09-15T20:19:14.990Z,85.00
2018-09-15T20:21:42.412Z,85.30
2018-09-15T20:24:11.013Z,85.50
2018-09-15T20:26:39.620Z,85.10
2018-09-15T20:29:10.166Z,86.70
2018-09-15T20:31:38.816Z,83.70
2018-09-15T20:34:07.410Z,84.60
2018-09-15T20:36:36.023Z,84.00
2018-09-15T20:39:07.840Z,85.00
2018-09-15T20:41:36.473Z,84.90
2018-09-15T20:44:05.057Z,85.10
2018-09-15T20:46:33.626Z,88.20
2018-09-15T20:49:02.229Z,86.30
2018-09-15T20:51:30.832Z,87.20
2018-09-15T20:53:59.428Z,86.20
2018-09-15T20:56:27.992Z,85.70
2018-09-15T20:58:56.581Z,87.50
2018-09-15T21:01:25.189Z,85.40
2018-09-15T21:03:53.778Z,86.80
2018-09-15T21:06:22.394Z,86.00
2018-09-15T21:08:50.977Z,86.70
2018-09-15T21:11:19.541Z,84.10
2018-09-15T21:13:48.151Z,87.10
2018-09-15T21:16:16.721Z,86.50
2018-09-15T21:18:45.801Z,87.30
2018-09-15T21:21:14.366Z,87.30
2018-09-15T21:23:42.967Z,90.40
2018-09-15T21:26:11.836Z,89.00
2018-09-15T21:28:40.434Z,89.10
2018-09-15T21:31:09.009Z,88.20
2018-09-15T21:33:37.604Z,86.10
2018-09-15T21:36:06.338Z,88.90
2018-09-15T21:38:34.969Z,87.10
2018-09-15T21:41:03.549Z,87.00
2018-09-15T21:43:32.154Z,87.90
2018-09-15T21:46:00.793Z,88.00
2018-09-15T21:48:29.360Z,86.50
2018-09-15T21:50:58.780Z,86.20
2018-09-15T21:53:27.368Z,88.00
2018-09-15T21:55:55.945Z,87.60
2018-09-15T21:58:24.535Z,84.80
2018-09-15T22:00:57.341Z,89.80
2018-09-15T22:03:25.939Z,90.20
2018-09-15T22:05:54.509Z,89.30
2018-09-15T22:08:23.109Z,88.70
2018-09-15T22:10:51.672Z,90.00
2018-09-15T22:13:20.274Z,86.20
2018-09-15T22:15:48.886Z,90.10
2018-09-15T22:18:17.431Z,90.60
2018-09-15T22:20:46.026Z,90.00
2018-09-15T22:23:14.585Z,89.50
2018-09-15T22:25:43.189Z,89.40
2018-09-15T22:28:11.808Z,90.00
2018-09-15T22:30:40.412Z,90.00
2018-09-15T22:33:09.082Z,90.10
2018-09-15T22:35:37.676Z,90.10
2018-09-15T22:38:06.301Z,88.20
2018-09-15T22:40:34.912Z,90.00
2018-09-15T22:43:03.491Z,89.70
2018-09-15T22:45:32.219Z,90.00
2018-09-15T22:48:00.801Z,89.60
2018-09-15T22:50:29.402Z,91.00
2018-09-15T22:52:57.964Z,89.80
2018-09-15T22:55:26.619Z,90.60
2018-09-15T22:57:55.176Z,90.10
2018-09-15T23:00:23.766Z,90.70
2018-09-15T23:02:52.346Z,90.10
2018-09-15T23:05:20.989Z,90.50
2018-09-15T23:07:49.577Z,90.60
2018-09-15T23:10:18.192Z,91.10
2018-09-15T23:12:46.778Z,91.30
2018-09-15T23:15:15.422Z,91.20
2018-09-15T23:17:43.983Z,90.80
2018-09-15T23:20:12.879Z,91.80
2018-09-15T23:22:41.443Z,91.80
2018-09-15T23:25:10.037Z,91.20
2018-09-15T23:27:38.678Z,90.80
2018-09-15T23:30:07.330Z,90.70
2018-09-15T23:32:35.940Z,91.70
2018-09-15T23:35:04.702Z,91.20
2018-09-15T23:37:33.285Z,92.20
2018-09-15T23:40:01.909Z,90.60
2018-09-15T23:42:30.476Z,91.00
2018-09-15T23:44:59.064Z,91.50
2018-09-15T23:47:27.628Z,91.30
2018-09-15T23:49:56.250Z,91.40
2018-09-15T23:52:24.829Z,91.40
2018-09-15T23:54:53.442Z,90.30
2018-09-15T23:57:22.093Z,90.90
2018-09-15T23:59:50.656Z,91.20
